This is the latest recevied weather packets stored in our database for station/object DM1AS-13. If no packets are shown the sender has not sent any weather packets the latest 10 day(s).
| Time | Temp. | Humidity | Pressure | Rain* | Wind** | Luminosity | Snow |
|---|---|---|---|---|---|---|---|
| 1778194156 | 8.89° C | 90% | 1020.4 hPa | 0 mm | - | - | - |
| 1778192976 | 9.44° C | 90% | 1020.2 hPa | 0 mm | - | - | - |
| 1778190556 | 9.44° C | 90% | 1020 hPa | 0 mm | - | - | - |
| 1778180356 | 10° C | 87% | 1019 hPa | 0.25 mm | - | - | - |
| 1778176756 | 10° C | 84% | 1018.6 hPa | 0 mm | - | - | - |
| 1778171956 | 11.11° C | 78% | 1018.1 hPa | 0 mm | - | - | - |
| 1778168958 | 11.11° C | 76% | 1018 hPa | 0 mm | - | - | - |
| 1778166557 | 11.67° C | 75% | 1017.6 hPa | 0 mm | - | - | - |
| 1778165357 | 11.67° C | 75% | 1017.4 hPa | 0 mm | - | - | - |
| 1778162358 | 11.11° C | 76% | 1017.2 hPa | 0 mm | - | - | - |
| 1778158757 | 10.56° C | 78% | 1017 hPa | 0 mm | - | - | - |
| 1778155757 | 10° C | 80% | 1016.8 hPa | 0 mm | - | - | - |
| 1778150357 | 9.44° C | 82% | 1016.5 hPa | 0 mm | - | - | - |
| 1778145557 | 9.44° C | 82% | 1015.5 hPa | 0 mm | - | - | - |
| 1778141357 | 8.89° C | 83% | 1014.9 hPa | 0 mm | - | - | - |
| 1778140157 | 8.89° C | 83% | 1014.7 hPa | 0 mm | - | - | - |
| 1778133557 | 8.33° C | 86% | 1013.7 hPa | 0 mm | - | - | - |
| 1778131157 | 8.33° C | 86% | 1013.3 hPa | 0 mm | - | - | - |
| 1778128757 | 8.33° C | 86% | 1013 hPa | 0 mm | - | - | - |
| 1778120956 | 7.78° C | 86% | 1012.3 hPa | 0 mm | - | - | - |
| 1778119756 | 8.33° C | 86% | 1012 hPa | 0 mm | - | - | - |
| 1778116756 | 7.78° C | 86% | 1011.7 hPa | 0 mm | - | - | - |
| 1778114976 | 7.78° C | 86% | 1011.5 hPa | 0 mm | - | - | - |
| 1778114356 | 8.33° C | 86% | 1011.1 hPa | 0 mm | - | - | - |
| 1778113756 | 8.33° C | 86% | 1011 hPa | 0 mm | - | - | - |
* Rain latest hour (hover to see other rain measurements)
** Current wind speed in m/s (hover to see current wind gust speed)